createdAt,value
2019-01-17T00:00:47.581Z,15.30
2019-01-17T00:03:46.809Z,13.93
2019-01-17T00:06:43.981Z,12.90
2019-01-17T00:09:24.156Z,12.97
2019-01-17T00:12:24.475Z,12.20
2019-01-17T00:15:16.730Z,12.57
2019-01-17T00:18:06.529Z,12.30
2019-01-17T00:20:53.641Z,12.90
2019-01-17T00:23:42.089Z,13.87
2019-01-17T00:26:28.062Z,15.07
2019-01-17T00:29:16.478Z,13.77
2019-01-17T00:31:53.353Z,13.87
2019-01-17T00:34:39.737Z,15.43
2019-01-17T00:37:31.727Z,15.53
2019-01-17T00:40:29.282Z,15.80
2019-01-17T00:43:16.278Z,17.50
2019-01-17T00:46:03.457Z,16.17
2019-01-17T00:48:57.745Z,17.90
2019-01-17T00:51:44.790Z,17.03
2019-01-17T00:54:39.167Z,17.27
2019-01-17T00:57:30.278Z,15.93
2019-01-17T01:00:10.118Z,15.90
2019-01-17T01:02:57.277Z,17.10
2019-01-17T01:05:32.720Z,15.70
2019-01-17T01:08:24.700Z,15.73
2019-01-17T01:11:16.364Z,15.47
2019-01-17T01:14:04.768Z,17.27
2019-01-17T01:17:11.105Z,17.17
2019-01-17T01:19:59.488Z,16.60
2019-01-17T01:22:46.597Z,16.27
2019-01-17T01:25:42.097Z,16.57
2019-01-17T01:28:45.389Z,15.30
2019-01-17T01:31:23.646Z,15.43
2019-01-17T01:34:10.794Z,15.23
2019-01-17T01:36:57.617Z,15.53
2019-01-17T01:40:00.889Z,15.40
2019-01-17T01:42:58.725Z,14.43
2019-01-17T01:45:47.383Z,13.87
2019-01-17T01:48:38.859Z,14.77
2019-01-17T01:51:27.194Z,14.80
2019-01-17T01:53:56.622Z,14.73
2019-01-17T01:56:26.205Z,14.23
2019-01-17T01:58:55.578Z,14.73
2019-01-17T02:01:24.943Z,14.07
2019-01-17T02:03:54.699Z,15.17
2019-01-17T02:06:25.420Z,15.10
2019-01-17T02:08:54.949Z,14.23
2019-01-17T02:11:24.370Z,14.90
2019-01-17T02:13:53.983Z,15.30
2019-01-17T02:16:23.436Z,13.60
2019-01-17T02:18:53.962Z,15.57
2019-01-17T02:21:23.368Z,15.10
2019-01-17T02:23:53.026Z,15.67
2019-01-17T02:26:22.461Z,14.97
2019-01-17T02:28:52.182Z,15.20
2019-01-17T02:31:23.324Z,14.80
2019-01-17T02:33:52.703Z,15.70
2019-01-17T02:36:22.124Z,16.20
2019-01-17T02:38:51.530Z,17.20
2019-01-17T02:41:21.215Z,16.53
2019-01-17T02:43:50.624Z,18.13
2019-01-17T02:46:20.046Z,17.47
2019-01-17T02:48:49.456Z,18.23
2019-01-17T02:51:18.781Z,16.77
2019-01-17T02:53:48.287Z,18.23
2019-01-17T02:56:17.706Z,16.67
2019-01-17T02:58:47.167Z,17.60
2019-01-17T03:01:16.599Z,16.90
2019-01-17T03:03:46.043Z,15.83
2019-01-17T03:06:15.458Z,15.70
2019-01-17T03:08:44.915Z,16.30
2019-01-17T03:11:14.659Z,16.20
2019-01-17T03:13:44.102Z,16.40
2019-01-17T03:16:13.441Z,15.90
2019-01-17T03:18:42.849Z,16.17
2019-01-17T03:21:12.545Z,16.30
2019-01-17T03:23:41.926Z,15.63
2019-01-17T03:26:11.451Z,16.53
2019-01-17T03:28:40.760Z,17.73
2019-01-17T03:31:10.188Z,17.17
2019-01-17T03:33:39.572Z,16.43
2019-01-17T03:36:08.958Z,16.50
2019-01-17T03:38:38.385Z,16.10
2019-01-17T03:41:07.808Z,17.37
2019-01-17T03:43:37.234Z,16.17
2019-01-17T03:46:06.653Z,16.00
2019-01-17T03:48:36.258Z,16.13
2019-01-17T03:51:05.687Z,16.23
2019-01-17T03:53:35.444Z,16.47
2019-01-17T03:56:04.849Z,16.07
2019-01-17T03:58:34.358Z,16.27
2019-01-17T04:01:03.840Z,16.13
2019-01-17T04:03:33.573Z,15.33
2019-01-17T04:06:03.014Z,14.77
2019-01-17T04:08:32.407Z,15.23
2019-01-17T04:11:01.776Z,15.83
2019-01-17T04:13:31.235Z,15.97
2019-01-17T04:16:00.610Z,14.33
2019-01-17T04:18:29.984Z,13.90
2019-01-17T04:20:59.335Z,13.77
2019-01-17T04:23:28.752Z,13.33
2019-01-17T04:25:58.229Z,12.47
2019-01-17T04:28:27.652Z,11.00
2019-01-17T04:30:57.060Z,10.20
2019-01-17T04:33:26.644Z,8.37
2019-01-17T04:35:56.060Z,7.63
2019-01-17T04:38:25.744Z,7.20
2019-01-17T04:40:55.172Z,6.67
2019-01-17T04:43:24.626Z,5.97
2019-01-17T04:45:54.106Z,4.67
2019-01-17T04:48:23.554Z,4.00
2019-01-17T04:50:53.012Z,3.73
2019-01-17T04:53:22.428Z,3.10
2019-01-17T04:55:51.922Z,3.10
2019-01-17T04:58:21.415Z,2.70
2019-01-17T05:00:50.810Z,2.60
2019-01-17T05:03:20.295Z,2.20
2019-01-17T05:05:49.785Z,2.30
2019-01-17T05:08:19.199Z,2.60
2019-01-17T05:10:48.674Z,2.73
2019-01-17T05:13:18.137Z,2.23
2019-01-17T05:15:47.832Z,2.30
2019-01-17T05:18:17.334Z,2.20
2019-01-17T05:20:46.791Z,1.67
2019-01-17T05:23:16.681Z,1.50
2019-01-17T05:25:46.108Z,1.20
2019-01-17T05:28:15.819Z,1.30
2019-01-17T05:30:46.489Z,1.30
2019-01-17T05:33:17.479Z,1.13
2019-01-17T05:35:47.091Z,1.30
2019-01-17T05:38:16.803Z,1.60
2019-01-17T05:40:46.259Z,1.60
2019-01-17T05:43:15.698Z,1.70
2019-01-17T05:45:45.154Z,1.70
2019-01-17T05:48:14.611Z,1.50
2019-01-17T05:50:44.059Z,1.50
2019-01-17T05:53:13.465Z,1.73
2019-01-17T05:55:42.963Z,1.20
2019-01-17T05:58:14.853Z,1.53
2019-01-17T06:00:44.284Z,1.27
2019-01-17T06:03:13.730Z,1.30
2019-01-17T06:05:43.163Z,1.70
2019-01-17T06:08:12.642Z,1.50
2019-01-17T06:10:42.090Z,2.07
2019-01-17T06:13:11.632Z,1.97
2019-01-17T06:15:41.551Z,2.83
2019-01-17T06:18:10.989Z,2.60
2019-01-17T06:20:40.494Z,2.60
2019-01-17T06:23:10.223Z,3.70
2019-01-17T06:25:40.103Z,3.70
2019-01-17T06:28:09.635Z,3.80
2019-01-17T06:30:39.056Z,3.17
2019-01-17T06:33:09.833Z,4.00
2019-01-17T06:35:39.295Z,3.00
2019-01-17T06:38:09.006Z,3.40
2019-01-17T06:40:38.464Z,3.60
2019-01-17T06:43:07.817Z,2.73
2019-01-17T06:45:38.462Z,2.67
2019-01-17T06:48:07.789Z,3.70
2019-01-17T06:50:37.739Z,3.57
2019-01-17T06:53:07.377Z,2.33
2019-01-17T06:55:37.384Z,2.60
2019-01-17T06:58:07.867Z,2.23
2019-01-17T07:00:37.606Z,2.57
2019-01-17T07:03:07.970Z,1.80
2019-01-17T07:05:37.361Z,2.20
2019-01-17T07:08:07.103Z,2.03
2019-01-17T07:10:36.484Z,1.80
2019-01-17T07:13:06.963Z,2.03
2019-01-17T07:15:38.046Z,1.97
2019-01-17T07:18:07.338Z,2.07
2019-01-17T07:20:36.719Z,2.00
2019-01-17T07:23:06.253Z,2.40
2019-01-17T07:25:41.052Z,2.40
2019-01-17T07:28:08.037Z,1.97
2019-01-17T07:30:37.413Z,2.10
2019-01-17T07:33:08.731Z,2.20
2019-01-17T07:35:38.023Z,2.53
2019-01-17T07:38:08.332Z,2.13
2019-01-17T07:40:40.267Z,2.23
2019-01-17T07:43:09.545Z,2.30
2019-01-17T07:45:38.943Z,2.20
2019-01-17T07:48:08.436Z,5.17
2019-01-17T07:50:37.695Z,3.50
2019-01-17T07:53:08.818Z,3.93
2019-01-17T07:55:38.294Z,3.33
2019-01-17T07:58:07.671Z,3.03
2019-01-17T08:00:37.243Z,4.50
2019-01-17T08:03:07.404Z,2.23
2019-01-17T08:05:37.097Z,2.10
2019-01-17T08:08:06.509Z,2.17
2019-01-17T08:10:35.861Z,2.63
2019-01-17T08:13:07.094Z,2.70
2019-01-17T08:15:36.352Z,3.50
2019-01-17T08:18:07.731Z,3.87
2019-01-17T08:20:37.107Z,5.10
2019-01-17T08:23:06.408Z,5.80
2019-01-17T08:25:35.871Z,6.27
2019-01-17T08:28:05.416Z,6.37
2019-01-17T08:30:34.824Z,6.63
2019-01-17T08:33:04.684Z,6.43
2019-01-17T08:35:34.061Z,7.17
2019-01-17T08:38:03.491Z,7.33
2019-01-17T08:40:34.123Z,7.53
2019-01-17T08:43:03.665Z,7.60
2019-01-17T08:45:33.140Z,7.60
2019-01-17T08:48:03.163Z,8.47
2019-01-17T08:50:33.275Z,7.77
2019-01-17T08:53:03.066Z,8.00
2019-01-17T08:55:32.577Z,7.93
2019-01-17T08:58:02.304Z,7.60
2019-01-17T09:00:32.886Z,7.73
2019-01-17T09:03:02.595Z,8.53
2019-01-17T09:05:33.142Z,8.93
2019-01-17T09:08:02.698Z,9.67
2019-01-17T09:10:32.850Z,9.03
2019-01-17T09:13:02.286Z,9.70
2019-01-17T09:15:33.682Z,8.63
2019-01-17T09:18:03.234Z,8.13
2019-01-17T09:20:32.818Z,8.10
2019-01-17T09:23:02.638Z,8.27
2019-01-17T09:25:32.104Z,7.97
2019-01-17T09:28:01.654Z,8.27
2019-01-17T09:30:31.137Z,9.13
2019-01-17T09:33:00.634Z,7.80
2019-01-17T09:35:30.108Z,8.50
2019-01-17T09:37:59.546Z,8.93
2019-01-17T09:40:28.968Z,8.77
2019-01-17T09:42:59.270Z,11.20
2019-01-17T09:45:28.739Z,8.97
2019-01-17T09:47:58.156Z,9.10
2019-01-17T09:50:27.750Z,8.67
2019-01-17T09:52:57.641Z,8.57
2019-01-17T09:55:27.086Z,9.80
2019-01-17T09:57:58.145Z,8.50
2019-01-17T10:00:29.479Z,8.70
2019-01-17T10:02:58.943Z,7.90
2019-01-17T10:05:28.673Z,7.77
2019-01-17T10:07:58.385Z,8.77
2019-01-17T10:10:27.958Z,7.93
2019-01-17T10:12:57.352Z,7.33
2019-01-17T10:15:54.047Z,7.20
2019-01-17T10:19:01.661Z,6.63
2019-01-17T10:21:52.987Z,4.77
2019-01-17T10:24:35.983Z,4.07
2019-01-17T10:27:50.038Z,3.80
2019-01-17T10:30:31.204Z,2.93
2019-01-17T10:33:24.166Z,3.17
2019-01-17T10:36:31.028Z,2.43
2019-01-17T10:39:53.323Z,2.23
2019-01-17T10:42:44.071Z,4.60
2019-01-17T10:45:48.210Z,3.07
2019-01-17T10:48:44.230Z,2.20
2019-01-17T10:51:50.459Z,1.87
2019-01-17T10:54:56.175Z,2.37
2019-01-17T10:57:57.969Z,2.03
2019-01-17T11:01:14.381Z,2.17
2019-01-17T11:04:19.351Z,1.60
2019-01-17T11:07:24.315Z,1.90
2019-01-17T11:10:11.636Z,3.47
2019-01-17T11:13:21.913Z,2.20
2019-01-17T11:16:16.455Z,2.10
2019-01-17T11:19:20.274Z,2.07
2019-01-17T11:22:20.998Z,1.97
2019-01-17T11:25:24.103Z,1.87
2019-01-17T11:28:18.179Z,1.60
2019-01-17T11:31:18.247Z,1.87
2019-01-17T11:34:17.508Z,2.30
2019-01-17T11:37:45.813Z,2.20
2019-01-17T11:40:58.586Z,1.83
2019-01-17T11:43:58.865Z,2.00
2019-01-17T11:47:00.215Z,2.43
2019-01-17T11:50:11.835Z,1.77
2019-01-17T11:53:43.104Z,2.40
2019-01-17T11:56:40.778Z,2.63
2019-01-17T11:59:17.060Z,2.80
2019-01-17T12:02:26.634Z,3.07
2019-01-17T12:04:54.802Z,2.93
2019-01-17T12:07:24.325Z,3.67
2019-01-17T12:09:53.788Z,3.40
2019-01-17T12:12:23.985Z,3.27
2019-01-17T12:14:56.395Z,3.50
2019-01-17T12:17:25.827Z,2.90
2019-01-17T12:19:55.577Z,4.23
2019-01-17T12:22:25.089Z,3.50
2019-01-17T12:24:54.822Z,3.33
2019-01-17T12:27:24.212Z,2.90
2019-01-17T12:29:53.665Z,2.77
2019-01-17T12:32:27.633Z,2.90
2019-01-17T12:34:56.789Z,2.57
2019-01-17T12:37:28.043Z,2.60
2019-01-17T12:39:57.281Z,2.20
2019-01-17T12:42:26.587Z,2.40
2019-01-17T12:44:55.924Z,2.90
2019-01-17T12:47:25.537Z,2.23
2019-01-17T12:49:54.977Z,2.80
2019-01-17T12:52:24.386Z,2.40
2019-01-17T12:54:54.022Z,2.40
2019-01-17T12:57:23.399Z,2.60
2019-01-17T12:59:52.774Z,2.33
2019-01-17T13:02:22.230Z,2.53
2019-01-17T13:04:51.566Z,3.03
2019-01-17T13:07:22.211Z,3.30
2019-01-17T13:09:52.149Z,3.23
2019-01-17T13:12:21.413Z,2.57
2019-01-17T13:14:50.786Z,2.33
2019-01-17T13:17:20.227Z,2.23
2019-01-17T13:19:49.832Z,2.30
2019-01-17T13:22:19.828Z,1.97
2019-01-17T13:24:50.460Z,2.30
2019-01-17T13:27:19.921Z,2.57
2019-01-17T13:29:49.316Z,2.40
2019-01-17T13:32:19.901Z,2.57
2019-01-17T13:34:49.223Z,2.13
2019-01-17T13:37:18.602Z,2.10
2019-01-17T13:39:47.945Z,2.40
2019-01-17T13:42:20.778Z,2.50
2019-01-17T13:44:48.359Z,2.23
2019-01-17T13:47:17.798Z,2.10
2019-01-17T13:49:47.205Z,3.30
2019-01-17T13:52:16.633Z,3.10
2019-01-17T13:54:46.048Z,2.90
2019-01-17T13:57:15.516Z,2.53
2019-01-17T13:59:45.026Z,2.83
2019-01-17T14:02:14.426Z,2.43
2019-01-17T14:04:43.994Z,2.90
2019-01-17T14:07:13.363Z,2.83
2019-01-17T14:09:43.225Z,2.17
2019-01-17T14:12:13.828Z,2.50
2019-01-17T14:14:43.240Z,2.37
2019-01-17T14:17:12.669Z,2.47
2019-01-17T14:19:42.892Z,2.30
2019-01-17T14:22:12.288Z,2.33
2019-01-17T14:24:41.773Z,2.67
2019-01-17T14:27:14.145Z,2.87
2019-01-17T14:29:42.493Z,3.10
2019-01-17T14:32:12.212Z,2.80
2019-01-17T14:34:41.637Z,2.43
2019-01-17T14:37:11.085Z,2.43
2019-01-17T14:39:40.329Z,2.17
2019-01-17T14:42:09.832Z,2.00
2019-01-17T14:44:39.233Z,2.40
2019-01-17T14:47:08.584Z,2.63
2019-01-17T14:49:38.211Z,2.57
2019-01-17T14:52:07.611Z,2.30
2019-01-17T14:54:37.000Z,2.67
2019-01-17T14:57:08.828Z,2.47
2019-01-17T14:59:38.224Z,2.47
2019-01-17T15:02:07.971Z,2.90
2019-01-17T15:04:37.294Z,2.67
2019-01-17T15:07:08.003Z,2.50
2019-01-17T15:09:37.481Z,3.37
2019-01-17T15:12:07.014Z,2.40
2019-01-17T15:14:36.450Z,2.67
2019-01-17T15:17:05.929Z,3.60
2019-01-17T15:19:35.314Z,3.03
2019-01-17T15:22:04.837Z,2.90
2019-01-17T15:24:34.427Z,2.90
2019-01-17T15:27:04.380Z,2.47
2019-01-17T15:29:33.931Z,2.40
2019-01-17T15:32:03.568Z,2.80
2019-01-17T15:34:33.026Z,3.50
2019-01-17T15:37:04.523Z,3.93
2019-01-17T15:39:35.069Z,3.17
2019-01-17T15:42:04.425Z,3.23
2019-01-17T15:44:33.805Z,2.73
2019-01-17T15:47:04.204Z,3.07
2019-01-17T15:49:33.911Z,3.00
2019-01-17T15:52:03.402Z,2.77
2019-01-17T15:54:32.748Z,2.97
2019-01-17T15:57:02.110Z,2.97
2019-01-17T15:59:31.792Z,3.20
2019-01-17T16:02:01.972Z,3.10
2019-01-17T16:04:31.354Z,3.27
2019-01-17T16:07:00.785Z,3.87
2019-01-17T16:09:30.192Z,3.93
2019-01-17T16:11:59.669Z,3.77
2019-01-17T16:14:28.951Z,4.37
2019-01-17T16:16:59.023Z,3.77
2019-01-17T16:19:29.346Z,4.17
2019-01-17T16:21:59.011Z,3.40
2019-01-17T16:24:28.409Z,3.90
2019-01-17T16:26:57.783Z,4.23
2019-01-17T16:29:28.085Z,4.13
2019-01-17T16:31:57.999Z,3.87
2019-01-17T16:34:27.448Z,3.53
2019-01-17T16:36:57.039Z,3.47
2019-01-17T16:39:26.651Z,3.80
2019-01-17T16:41:56.166Z,3.67
2019-01-17T16:44:26.006Z,3.60
2019-01-17T16:46:55.383Z,3.53
2019-01-17T16:49:24.752Z,3.97
2019-01-17T16:51:54.171Z,3.53
2019-01-17T16:54:24.535Z,3.70
2019-01-17T16:56:53.855Z,4.10
2019-01-17T16:59:23.176Z,3.50
2019-01-17T17:01:52.570Z,4.10
2019-01-17T17:04:22.062Z,3.47
2019-01-17T17:06:51.570Z,3.30
2019-01-17T17:09:21.133Z,3.77
2019-01-17T17:11:52.117Z,4.70
2019-01-17T17:14:22.286Z,3.73
2019-01-17T17:16:51.902Z,3.27
2019-01-17T17:19:21.311Z,3.33
2019-01-17T17:21:50.757Z,3.30
2019-01-17T17:24:20.193Z,3.40
2019-01-17T17:26:50.463Z,3.80
2019-01-17T17:29:20.755Z,3.67
2019-01-17T17:31:50.119Z,3.43
2019-01-17T17:34:20.083Z,3.00
2019-01-17T17:36:49.485Z,3.57
2019-01-17T17:39:18.795Z,3.47
2019-01-17T17:41:48.330Z,3.40
2019-01-17T17:44:19.348Z,3.17
2019-01-17T17:46:48.722Z,3.00
2019-01-17T17:49:18.949Z,3.43
2019-01-17T17:51:48.340Z,2.93
2019-01-17T17:54:17.776Z,3.63
2019-01-17T17:56:49.118Z,2.97
2019-01-17T17:59:18.506Z,3.83
2019-01-17T18:01:53.846Z,3.20
2019-01-17T18:04:23.131Z,2.93
2019-01-17T18:06:52.684Z,3.67
2019-01-17T18:09:21.962Z,2.97
2019-01-17T18:11:51.921Z,3.03
2019-01-17T18:14:21.909Z,3.80
2019-01-17T18:16:52.344Z,3.50
2019-01-17T18:19:21.990Z,3.30
2019-01-17T18:21:51.555Z,4.13
2019-01-17T18:24:22.014Z,2.93
2019-01-17T18:26:51.520Z,3.40
2019-01-17T18:29:22.977Z,3.57
2019-01-17T18:31:52.336Z,3.40
2019-01-17T18:34:23.870Z,3.20
2019-01-17T18:36:53.394Z,3.23
2019-01-17T18:39:24.370Z,3.47
2019-01-17T18:41:53.901Z,2.77
2019-01-17T18:44:23.715Z,3.90
2019-01-17T18:46:53.846Z,3.33
2019-01-17T18:49:23.383Z,3.80
2019-01-17T18:51:52.826Z,3.87
2019-01-17T18:54:22.246Z,3.40
2019-01-17T18:56:52.325Z,3.83
2019-01-17T18:59:21.796Z,4.00
2019-01-17T19:01:51.303Z,4.40
2019-01-17T19:04:21.402Z,4.40
2019-01-17T19:06:50.857Z,3.93
2019-01-17T19:09:20.236Z,4.30
2019-01-17T19:11:50.102Z,4.47
2019-01-17T19:14:19.738Z,4.87
2019-01-17T19:16:49.587Z,6.00
2019-01-17T19:19:20.059Z,5.13
2019-01-17T19:21:49.762Z,5.13
2019-01-17T19:24:19.498Z,5.53
2019-01-17T19:26:49.775Z,5.13
2019-01-17T19:29:19.445Z,4.67
2019-01-17T19:31:48.954Z,5.10
2019-01-17T19:34:19.076Z,4.60
2019-01-17T19:36:48.672Z,4.33
2019-01-17T19:39:18.150Z,4.63
2019-01-17T19:41:49.031Z,5.00
2019-01-17T19:44:20.366Z,4.57
2019-01-17T19:46:50.939Z,5.23
2019-01-17T19:49:20.522Z,3.90
2019-01-17T19:51:49.981Z,5.17
2019-01-17T19:54:19.484Z,5.43
2019-01-17T19:56:49.153Z,4.60
2019-01-17T19:59:18.571Z,5.23
2019-01-17T20:01:48.324Z,4.03
2019-01-17T20:04:17.838Z,4.80
2019-01-17T20:06:47.345Z,4.83
2019-01-17T20:09:17.520Z,4.97
2019-01-17T20:11:46.947Z,5.13
2019-01-17T20:14:16.410Z,4.80
2019-01-17T20:16:46.098Z,5.40
2019-01-17T20:19:15.583Z,4.50
2019-01-17T20:21:45.060Z,4.43
2019-01-17T20:24:14.862Z,4.63
2019-01-17T20:26:44.390Z,4.17
2019-01-17T20:29:13.937Z,6.50
2019-01-17T20:31:43.488Z,5.50
2019-01-17T20:34:13.040Z,5.60
2019-01-17T20:36:44.197Z,5.93
2019-01-17T20:39:13.700Z,5.20
2019-01-17T20:41:43.149Z,5.40
2019-01-17T20:44:12.649Z,5.93
2019-01-17T20:46:42.235Z,4.40
2019-01-17T20:49:11.680Z,6.17
2019-01-17T20:51:41.246Z,5.93
2019-01-17T20:54:10.738Z,5.07
2019-01-17T20:56:40.344Z,5.43
2019-01-17T20:59:10.071Z,5.10
2019-01-17T21:02:00.357Z,5.10
2019-01-17T21:04:30.136Z,4.73
2019-01-17T21:07:05.615Z,5.00
2019-01-17T21:09:32.342Z,4.23
2019-01-17T21:12:01.834Z,5.40
2019-01-17T21:14:31.324Z,5.40
2019-01-17T21:17:01.173Z,4.40
2019-01-17T21:19:30.883Z,4.73
2019-01-17T21:22:01.782Z,4.70
2019-01-17T21:24:31.239Z,5.00
2019-01-17T21:27:01.818Z,4.40
2019-01-17T21:29:31.388Z,4.77
2019-01-17T21:32:00.965Z,4.30
2019-01-17T21:34:30.490Z,5.43
2019-01-17T21:37:00.050Z,4.83
2019-01-17T21:39:29.502Z,4.80
2019-01-17T21:41:59.096Z,5.10
2019-01-17T21:44:28.855Z,5.27
2019-01-17T21:46:58.301Z,5.30
2019-01-17T21:49:27.887Z,4.77
2019-01-17T21:51:57.462Z,4.97
2019-01-17T21:54:27.520Z,4.90
2019-01-17T21:56:57.197Z,4.57
2019-01-17T21:59:26.646Z,5.17
2019-01-17T22:01:57.462Z,4.80
2019-01-17T22:04:27.026Z,4.77
2019-01-17T22:06:56.802Z,4.67
2019-01-17T22:09:26.319Z,4.87
2019-01-17T22:11:55.828Z,4.60
2019-01-17T22:14:25.304Z,4.67
2019-01-17T22:16:54.848Z,4.23
2019-01-17T22:19:25.214Z,5.07
2019-01-17T22:21:55.029Z,4.87
2019-01-17T22:24:24.567Z,4.77
2019-01-17T22:26:53.983Z,4.90
2019-01-17T22:29:23.582Z,5.23
2019-01-17T22:31:53.043Z,4.37
2019-01-17T22:34:23.777Z,5.00
2019-01-17T22:36:53.288Z,4.40
2019-01-17T22:39:23.634Z,4.73
2019-01-17T22:41:54.647Z,6.70
2019-01-17T22:44:24.478Z,5.07
2019-01-17T22:46:53.948Z,4.53
2019-01-17T22:49:23.383Z,4.53
2019-01-17T22:51:52.913Z,4.20
2019-01-17T22:54:22.721Z,5.17
2019-01-17T22:56:52.458Z,4.37
2019-01-17T22:59:21.931Z,4.60
2019-01-17T23:01:51.658Z,4.47
2019-01-17T23:04:23.123Z,4.47
2019-01-17T23:06:52.686Z,4.37
2019-01-17T23:09:22.106Z,4.83
2019-01-17T23:11:51.890Z,4.37
2019-01-17T23:14:21.562Z,4.53
2019-01-17T23:16:51.509Z,4.50
2019-01-17T23:19:20.940Z,4.60
2019-01-17T23:21:50.830Z,5.27
2019-01-17T23:24:20.515Z,6.27
2019-01-17T23:26:50.031Z,5.90
2019-01-17T23:29:19.490Z,5.93
2019-01-17T23:31:49.810Z,6.70
2019-01-17T23:34:19.514Z,5.47
2019-01-17T23:36:49.070Z,6.77
2019-01-17T23:39:18.531Z,5.73
2019-01-17T23:41:47.901Z,5.37
2019-01-17T23:44:17.354Z,5.53
2019-01-17T23:46:47.105Z,5.33
2019-01-17T23:49:16.529Z,5.50
2019-01-17T23:51:46.022Z,4.67
2019-01-17T23:54:15.425Z,5.80
2019-01-17T23:56:44.858Z,5.00
2019-01-17T23:59:15.053Z,5.60
